createdAt,value
2023-01-02T00:01:44.594Z,3.75
2023-01-02T00:05:16.811Z,4.30
2023-01-02T00:08:48.512Z,4.47
2023-01-02T00:12:20.614Z,4.53
2023-01-02T00:15:52.474Z,3.92
2023-01-02T00:19:24.507Z,3.97
2023-01-02T00:22:56.410Z,3.72
2023-01-02T00:26:30.387Z,3.95
2023-01-02T00:30:02.708Z,3.80
2023-01-02T00:33:35.946Z,3.95
2023-01-02T00:37:07.789Z,5.00
2023-01-02T00:40:41.866Z,4.28
2023-01-02T00:44:13.612Z,4.60
2023-01-02T00:47:45.851Z,4.45
2023-01-02T00:51:17.672Z,4.40
2023-01-02T00:54:49.628Z,5.27
2023-01-02T00:58:21.318Z,4.45
2023-01-02T01:01:53.735Z,4.78
2023-01-02T01:05:26.495Z,5.77
2023-01-02T01:08:59.603Z,5.93
2023-01-02T01:12:31.451Z,6.38
2023-01-02T01:16:11.535Z,7.03
2023-01-02T01:19:43.334Z,5.60
2023-01-02T01:23:15.399Z,6.70
2023-01-02T01:26:47.229Z,6.25
2023-01-02T01:30:19.364Z,6.50
2023-01-02T01:33:51.433Z,6.88
2023-01-02T01:37:23.510Z,6.88
2023-01-02T01:40:55.218Z,6.63
2023-01-02T01:44:47.566Z,6.90
2023-01-02T01:48:19.304Z,7.75
2023-01-02T01:52:07.642Z,6.10
2023-01-02T01:55:47.575Z,6.73
2023-01-02T01:59:19.966Z,6.30
2023-01-02T02:02:57.545Z,6.32
2023-01-02T02:06:30.345Z,6.13
2023-01-02T02:10:08.235Z,6.28
2023-01-02T02:13:41.070Z,6.03
2023-01-02T02:17:24.544Z,6.90
2023-01-02T02:21:19.533Z,6.47
2023-01-02T02:25:03.212Z,6.03
2023-01-02T02:28:44.363Z,5.55
2023-01-02T02:32:40.988Z,5.90
2023-01-02T02:36:39.363Z,5.45
2023-01-02T02:40:30.183Z,5.45
2023-01-02T02:44:08.027Z,5.78
2023-01-02T02:47:58.906Z,5.60
2023-01-02T02:51:37.095Z,6.10
2023-01-02T02:55:25.947Z,5.65
2023-01-02T02:58:58.588Z,5.57
2023-01-02T03:02:30.710Z,6.07
2023-01-02T03:06:17.121Z,5.70
2023-01-02T03:10:30.709Z,4.35
2023-01-02T03:14:08.726Z,4.73
2023-01-02T03:18:22.388Z,5.88
2023-01-02T03:22:10.064Z,5.25
2023-01-02T03:25:43.967Z,5.05
2023-01-02T03:29:20.507Z,6.30
2023-01-02T03:33:00.673Z,5.88
2023-01-02T03:36:35.010Z,4.75
2023-01-02T03:40:16.079Z,5.60
2023-01-02T03:43:56.836Z,4.80
2023-01-02T03:47:50.406Z,4.60
2023-01-02T03:51:23.025Z,5.20
2023-01-02T03:54:56.733Z,5.63
2023-01-02T03:58:35.111Z,5.22
2023-01-02T04:02:10.256Z,5.20
2023-01-02T04:06:07.186Z,4.80
2023-01-02T04:09:40.329Z,4.65
2023-01-02T04:13:18.673Z,5.18
2023-01-02T04:16:53.565Z,5.87
2023-01-02T04:20:30.852Z,6.15
2023-01-02T04:24:11.441Z,6.05
2023-01-02T04:28:17.730Z,5.53
2023-01-02T04:31:52.703Z,5.60
2023-01-02T04:35:25.309Z,6.07
2023-01-02T04:38:57.039Z,5.85
2023-01-02T04:42:29.236Z,5.33
2023-01-02T04:46:01.604Z,6.13
2023-01-02T04:49:33.754Z,5.68
2023-01-02T04:53:05.655Z,5.97
2023-01-02T04:56:37.872Z,5.38
2023-01-02T05:00:10.123Z,5.65
2023-01-02T05:03:44.355Z,4.78
2023-01-02T05:07:16.310Z,5.70
2023-01-02T05:10:48.683Z,5.57
2023-01-02T05:14:20.897Z,5.38
2023-01-02T05:17:53.105Z,4.83
2023-01-02T05:21:43.528Z,5.18
2023-01-02T05:25:16.101Z,5.25
2023-01-02T05:28:47.816Z,5.25
2023-01-02T05:32:20.031Z,4.87
2023-01-02T05:35:51.914Z,5.47
2023-01-02T05:39:24.044Z,6.22
2023-01-02T05:42:55.842Z,6.07
2023-01-02T05:46:28.610Z,5.30
2023-01-02T05:50:00.538Z,6.03
2023-01-02T05:53:32.884Z,6.07
2023-01-02T05:57:04.888Z,5.32
2023-01-02T06:00:37.074Z,5.43
2023-01-02T06:04:08.790Z,5.03
2023-01-02T06:07:40.774Z,5.40
2023-01-02T06:11:12.976Z,5.60
2023-01-02T06:14:45.200Z,5.50
2023-01-02T06:18:16.947Z,5.03
2023-01-02T06:21:48.917Z,5.40
2023-01-02T06:25:21.094Z,5.18
2023-01-02T06:28:55.951Z,5.35
2023-01-02T06:32:27.691Z,5.37
2023-01-02T06:36:01.608Z,3.95
2023-01-02T06:39:33.306Z,5.38
2023-01-02T06:43:05.779Z,4.70
2023-01-02T06:46:37.872Z,5.10
2023-01-02T06:50:10.515Z,5.15
2023-01-02T06:53:43.699Z,4.67
2023-01-02T06:57:15.724Z,5.88
2023-01-02T07:00:48.211Z,4.60
2023-01-02T07:04:20.300Z,5.40
2023-01-02T07:07:52.008Z,5.90
2023-01-02T07:11:25.018Z,4.55
2023-01-02T07:14:56.743Z,5.07
2023-01-02T07:18:28.823Z,4.93
2023-01-02T07:22:00.767Z,4.55
2023-01-02T07:25:32.713Z,5.15
2023-01-02T07:29:04.745Z,5.57
2023-01-02T07:32:37.100Z,4.57
2023-01-02T07:36:12.047Z,4.80
2023-01-02T07:39:44.447Z,4.28
2023-01-02T07:43:16.352Z,4.27
2023-01-02T07:46:48.303Z,4.70
2023-01-02T07:50:20.214Z,4.72
2023-01-02T07:53:52.309Z,4.73
2023-01-02T07:57:24.006Z,4.35
2023-01-02T08:01:03.231Z,4.40
2023-01-02T08:04:36.873Z,3.67
2023-01-02T08:08:08.896Z,3.83
2023-01-02T08:11:40.809Z,3.30
2023-01-02T08:15:13.004Z,4.32
2023-01-02T08:18:45.163Z,3.03
2023-01-02T08:22:17.402Z,3.75
2023-01-02T08:25:54.107Z,3.53
2023-01-02T08:29:29.332Z,4.43
2023-01-02T08:33:01.269Z,3.05
2023-01-02T08:36:33.741Z,2.70
2023-01-02T08:40:06.085Z,2.92
2023-01-02T08:43:38.516Z,3.47
2023-01-02T08:47:10.415Z,2.80
2023-01-02T08:50:42.557Z,2.97
2023-01-02T08:54:14.563Z,3.13
2023-01-02T08:57:46.807Z,3.45
2023-01-02T09:01:18.738Z,4.25
2023-01-02T09:04:51.129Z,3.60
2023-01-02T09:08:22.876Z,2.53
2023-01-02T09:11:55.293Z,3.22
2023-01-02T09:15:27.210Z,3.30
2023-01-02T09:19:01.022Z,3.10
2023-01-02T09:22:32.817Z,3.58
2023-01-02T09:26:06.857Z,3.85
2023-01-02T09:29:38.785Z,3.93
2023-01-02T09:33:10.903Z,3.95
2023-01-02T09:36:42.656Z,3.20
2023-01-02T09:40:14.836Z,2.58
2023-01-02T09:43:52.188Z,4.10
2023-01-02T09:47:29.559Z,2.15
2023-01-02T09:51:07.549Z,3.28
2023-01-02T09:54:40.137Z,2.27
2023-01-02T09:58:49.195Z,3.40
2023-01-02T10:02:49.234Z,3.50
2023-01-02T10:06:33.230Z,2.38
2023-01-02T10:10:14.891Z,2.40
2023-01-02T10:17:52.042Z,2.92
2023-01-02T10:21:28.681Z,2.40
2023-01-02T10:25:12.625Z,2.40
2023-01-02T10:28:56.102Z,2.83
2023-01-02T10:32:30.664Z,2.25
2023-01-02T10:36:02.959Z,2.57
2023-01-02T10:39:34.980Z,2.45
2023-01-02T10:43:06.741Z,2.65
2023-01-02T10:46:41.373Z,2.80
2023-01-02T10:50:25.550Z,3.10
2023-01-02T10:54:06.164Z,6.93
2023-01-02T10:57:43.929Z,3.80
2023-01-02T11:01:19.103Z,5.20
2023-01-02T11:04:51.824Z,5.93
2023-01-02T11:08:34.987Z,6.28
2023-01-02T11:12:14.365Z,6.30
2023-01-02T11:15:53.436Z,7.07
2023-01-02T11:19:29.595Z,4.15
2023-01-02T11:23:04.558Z,4.15
2023-01-02T11:26:40.468Z,3.83
2023-01-02T11:30:33.567Z,3.30
2023-01-02T11:34:24.440Z,3.53
2023-01-02T11:37:56.498Z,3.13
2023-01-02T11:42:18.187Z,2.90
2023-01-02T11:45:51.878Z,3.13
2023-01-02T11:49:26.583Z,2.85
2023-01-02T11:53:03.144Z,3.37
2023-01-02T11:56:37.560Z,3.10
2023-01-02T12:00:14.860Z,2.92
2023-01-02T12:03:46.766Z,2.57
2023-01-02T12:07:46.363Z,2.57
2023-01-02T12:11:40.949Z,2.90
2023-01-02T12:15:46.775Z,2.47
2023-01-02T12:19:39.674Z,2.80
2023-01-02T12:23:17.921Z,3.28
2023-01-02T12:27:08.280Z,2.70
2023-01-02T12:30:50.485Z,2.95
2023-01-02T12:35:01.324Z,2.93
2023-01-02T12:39:30.654Z,3.22
2023-01-02T12:43:23.625Z,2.33
2023-01-02T12:46:55.418Z,3.33
2023-01-02T12:51:12.824Z,3.78
2023-01-02T12:55:02.717Z,3.22
2023-01-02T12:58:40.920Z,4.25
2023-01-02T13:02:52.631Z,3.00
2023-01-02T13:06:43.527Z,3.03
2023-01-02T13:10:22.120Z,2.90
2023-01-02T13:13:55.779Z,3.20
2023-01-02T13:17:42.672Z,3.20
2023-01-02T13:21:26.066Z,2.60
2023-01-02T13:24:58.944Z,3.07
2023-01-02T13:28:31.742Z,2.80
2023-01-02T13:32:03.578Z,2.17
2023-01-02T13:35:37.883Z,3.00
2023-01-02T13:39:27.322Z,2.87
2023-01-02T13:43:06.083Z,2.65
2023-01-02T13:47:03.182Z,2.80
2023-01-02T13:50:41.338Z,2.90
2023-01-02T13:54:20.486Z,3.47
2023-01-02T13:58:20.392Z,2.58
2023-01-02T14:02:15.593Z,2.88
2023-01-02T14:06:25.448Z,2.73
2023-01-02T14:10:09.405Z,3.05
2023-01-02T14:13:46.778Z,3.10
2023-01-02T14:17:52.288Z,2.97
2023-01-02T14:21:33.835Z,2.80
2023-01-02T14:25:05.845Z,2.97
2023-01-02T14:28:39.889Z,2.80
2023-01-02T14:32:26.733Z,3.30
2023-01-02T14:36:06.479Z,2.80
2023-01-02T14:39:38.960Z,3.08
2023-01-02T14:43:31.981Z,3.55
2023-01-02T14:47:06.253Z,3.63
2023-01-02T14:50:41.930Z,3.50
2023-01-02T14:54:26.333Z,3.58
2023-01-02T14:58:00.735Z,3.28
2023-01-02T15:01:44.242Z,3.93
2023-01-02T15:05:37.318Z,3.65
2023-01-02T15:09:12.648Z,3.40
2023-01-02T15:13:07.521Z,4.30
2023-01-02T15:16:48.925Z,3.90
2023-01-02T15:20:23.747Z,3.70
2023-01-02T15:23:59.229Z,4.20
2023-01-02T15:27:33.326Z,3.40
2023-01-02T15:31:12.639Z,3.05
2023-01-02T15:34:44.843Z,3.00
2023-01-02T15:38:24.117Z,3.23
2023-01-02T15:41:57.580Z,3.05
2023-01-02T15:45:30.664Z,2.90
2023-01-02T15:49:04.249Z,3.45
2023-01-02T15:52:36.437Z,2.67
2023-01-02T15:56:37.824Z,3.13
2023-01-02T16:00:42.187Z,3.42
2023-01-02T16:04:28.678Z,3.17
2023-01-02T16:08:00.664Z,3.67
2023-01-02T16:11:42.571Z,3.35
2023-01-02T16:15:19.996Z,3.83
2023-01-02T16:18:59.667Z,2.07
2023-01-02T16:22:54.919Z,2.53
2023-01-02T16:26:33.369Z,3.70
2023-01-02T16:30:28.362Z,2.85
2023-01-02T16:34:14.330Z,3.00
2023-01-02T16:37:53.606Z,4.00
2023-01-02T16:41:34.772Z,3.58
2023-01-02T16:45:07.481Z,2.20
2023-01-02T16:48:41.450Z,4.23
2023-01-02T16:52:13.469Z,4.00
2023-01-02T16:55:45.702Z,4.43
2023-01-02T16:59:17.614Z,4.20
2023-01-02T17:02:49.844Z,3.97
2023-01-02T17:06:22.023Z,3.97
2023-01-02T17:09:54.041Z,3.92
2023-01-02T17:13:27.019Z,3.97
2023-01-02T17:16:59.800Z,4.28
2023-01-02T17:20:31.882Z,3.13
2023-01-02T17:24:03.899Z,4.13
2023-01-02T17:27:36.042Z,3.13
2023-01-02T17:31:09.263Z,2.75
2023-01-02T17:34:41.132Z,3.13
2023-01-02T17:38:13.774Z,4.20
2023-01-02T17:41:45.543Z,4.00
2023-01-02T17:45:17.884Z,2.60
2023-01-02T17:48:49.678Z,2.90
2023-01-02T17:52:21.920Z,3.13
2023-01-02T17:56:21.131Z,3.10
2023-01-02T17:59:48.124Z,2.60
2023-01-02T18:03:20.125Z,2.23
2023-01-02T18:06:52.301Z,2.65
2023-01-02T18:10:29.210Z,3.00
2023-01-02T18:14:14.917Z,2.65
2023-01-02T18:17:47.533Z,2.50
2023-01-02T18:21:22.350Z,3.25
2023-01-02T18:24:55.035Z,2.67
2023-01-02T18:28:27.241Z,3.40
2023-01-02T18:31:59.453Z,2.13
2023-01-02T18:39:31.330Z,1.88
2023-01-02T18:43:20.476Z,1.97
2023-01-02T18:47:01.857Z,1.45
2023-01-02T18:50:37.936Z,2.08
2023-01-02T18:54:28.323Z,2.45
2023-01-02T18:58:04.581Z,2.23
2023-01-02T19:01:40.661Z,2.53
2023-01-02T19:05:46.632Z,2.05
2023-01-02T19:09:25.607Z,3.03
2023-01-02T19:13:07.902Z,2.72
2023-01-02T19:16:40.983Z,2.70
2023-01-02T19:20:14.677Z,2.25
2023-01-02T19:23:58.424Z,2.93
2023-01-02T19:27:36.843Z,1.80
2023-01-02T19:31:15.137Z,2.85
2023-01-02T19:34:52.880Z,3.13
2023-01-02T19:38:29.631Z,2.15
2023-01-02T19:42:20.013Z,2.90
2023-01-02T19:45:52.925Z,2.47
2023-01-02T19:49:25.300Z,2.47
2023-01-02T19:52:57.810Z,2.65
2023-01-02T19:56:29.894Z,2.58
2023-01-02T20:00:02.413Z,2.17
2023-01-02T20:03:34.766Z,2.57
2023-01-02T20:07:07.263Z,2.47
2023-01-02T20:10:39.331Z,2.28
2023-01-02T20:14:11.233Z,2.53
2023-01-02T20:17:44.316Z,2.60
2023-01-02T20:21:16.227Z,2.53
2023-01-02T20:24:48.555Z,2.95
2023-01-02T20:28:20.252Z,2.43
2023-01-02T20:31:52.621Z,3.10
2023-01-02T20:35:24.543Z,3.10
2023-01-02T20:38:56.894Z,3.80
2023-01-02T20:42:28.615Z,3.08
2023-01-02T20:46:00.777Z,3.25
2023-01-02T20:49:32.708Z,2.70
2023-01-02T20:53:06.614Z,2.57
2023-01-02T20:56:38.393Z,2.95
2023-01-02T21:00:11.220Z,2.15
2023-01-02T21:03:42.987Z,1.90
2023-01-02T21:07:15.137Z,1.55
2023-01-02T21:10:47.053Z,1.30
2023-01-02T21:14:19.232Z,1.00
2023-01-02T21:17:51.108Z,0.90
2023-01-02T21:21:23.269Z,1.30
2023-01-02T21:24:55.048Z,0.90
2023-01-02T21:28:27.360Z,0.63
2023-01-02T21:31:59.434Z,0.50
2023-01-02T21:35:31.489Z,0.30
2023-01-02T21:39:03.250Z,0.30
2023-01-02T21:42:40.780Z,0.30
2023-01-02T21:46:16.336Z,0.20
2023-01-02T21:49:48.377Z,0.22
2023-01-02T21:53:20.237Z,0.33
2023-01-02T21:56:53.457Z,0.60
2023-01-02T22:00:28.219Z,0.40
2023-01-02T22:04:00.300Z,0.30
2023-01-02T22:07:33.577Z,0.40
2023-01-02T22:11:25.611Z,0.30
2023-01-02T22:14:57.506Z,0.30
2023-01-02T22:18:32.293Z,0.20
2023-01-02T22:22:08.308Z,0.20
2023-01-02T22:25:40.384Z,0.30
2023-01-02T22:29:14.333Z,0.30
2023-01-02T22:32:46.399Z,0.40
2023-01-02T22:36:18.133Z,0.30
2023-01-02T22:39:50.590Z,0.28
2023-01-02T22:43:24.659Z,0.30
2023-01-02T22:46:57.107Z,0.20
2023-01-02T22:50:31.818Z,0.20
2023-01-02T22:54:04.526Z,0.20
2023-01-02T22:57:36.228Z,0.30
2023-01-02T23:01:36.525Z,0.20
2023-01-02T23:05:20.666Z,0.30
2023-01-02T23:08:52.984Z,0.40
2023-01-02T23:12:24.681Z,0.30
2023-01-02T23:16:15.444Z,0.75
2023-01-02T23:19:47.466Z,0.20
2023-01-02T23:23:19.494Z,0.40
2023-01-02T23:26:53.647Z,0.40
2023-01-02T23:30:25.755Z,0.30
2023-01-02T23:33:57.608Z,0.27
2023-01-02T23:37:29.756Z,0.20
2023-01-02T23:41:01.630Z,0.35
2023-01-02T23:44:33.782Z,0.30
2023-01-02T23:48:05.847Z,0.20
2023-01-02T23:51:39.150Z,0.20
2023-01-02T23:55:10.935Z,0.40
2023-01-02T23:58:42.890Z,0.20
